Latest Weather Observations for Maryborough

IDQ60801

Issued at 4:32 pm EST Friday 26 August 2016 (issued every 30 minutes, with the page automatically refreshed every 10 minutes)

About weather observations | Map of weather stations | Latest weather observations for QLD | Other Formats
Station Details ID: 040126 Name: MARYBOROUGH Lat: -25.51 Lon: 152.72 Height: 8.98 m
Data from the previous 72 hours. | See also: Recent months at Maryborough
Date/Time
EST
Temp
°C
App
Temp
°C
Dew
Point
°C
Rel
Hum
%
Delta-T
°C
Wind Press
QNH
hPa
Press
MSL
hPa
Rain since
9am
mm
Dir  Spd
km/h
Gust
km/h
Spd
kts
Gust
kts
26/04:30pm 20.3 16.4 -1.5 23 9.4 SSW 9 15 5 8 1014.8 - 0.0
26/04:00pm 20.1 16.6 -1.1 24 9.2 SW 7 13 4 7 1014.7 - 0.0
26/03:30pm 19.6 15.3 -1.5 24 9.0 WSW 11 15 6 8 1014.4 - 0.0
26/03:00pm 21.3 15.3 -1.9 21 10.0 WSW 20 30 11 16 1014.3 1014.3 0.0
26/02:30pm 19.7 14.0 -0.9 25 8.9 SSW 19 24 10 13 1014.2 - 0.0
26/02:00pm 21.3 17.5 1.6 27 9.1 SW 11 22 6 12 1014.5 - 0.0
26/01:30pm 20.4 16.4 0.8 27 8.8 W 11 20 6 11 1014.7 - 0.0
26/01:00pm 20.1 15.6 0.0 26 8.9 WSW 13 22 7 12 1015.0 - 0.0
26/12:30pm 19.7 15.7 0.7 28 8.5 SSW 11 19 6 10 1015.7 - 0.0
26/12:00pm 19.0 15.1 1.1 30 8.0 S 11 19 6 10 1016.1 1016.1 0.0
26/11:30am 19.2 15.9 2.6 33 7.7 S 9 17 5 9 1016.3 - 0.0
26/11:00am 18.5 15.3 2.8 35 7.2 SSW 9 17 5 9 1017.0 - 0.0
26/10:30am 18.0 13.6 2.7 36 7.0 S 15 20 8 11 1017.2 - 0.0
26/10:00am 17.4 12.5 4.0 41 6.3 SSW 19 28 10 15 1017.8 - 0.0
26/09:30am 17.1 12.1 4.4 43 6.0 SSW 20 24 11 13 1018.1 - 0.0
26/09:00am 15.4 10.5 3.9 46 5.3 SW 19 26 10 14 1018.3 1018.3 0.0
26/08:30am 14.4 9.0 4.4 51 4.6 SW 22 30 12 16 1018.7 - 0.0
26/08:00am 13.0 8.2 4.9 58 3.7 SW 19 24 10 13 1018.2 - 0.0
26/07:30am 11.9 7.2 5.1 63 3.1 SW 19 24 10 13 1018.2 - 0.0
26/07:00am 10.7 6.3 4.8 67 2.7 SW 17 24 9 13 1018.1 - 0.0
26/06:30am 9.4 5.7 4.4 71 2.2 SW 13 19 7 10 1017.6 - 0.0
26/06:00am 9.5 5.8 4.3 70 2.3 SW 13 17 7 9 1017.3 1017.3 0.0
26/05:30am 9.5 5.7 4.1 69 2.4 SW 13 19 7 10 1016.7 - 0.0
26/05:00am 9.7 5.6 4.3 69 2.4 SW 15 20 8 11 1016.3 - 0.0
26/04:30am 9.0 5.6 4.2 72 2.1 SSW 11 15 6 8 1016.3 - 0.0
26/04:00am 10.4 6.6 3.7 63 2.9 SSW 13 17 7 9 1016.1 - 0.0
26/03:30am 11.3 6.4 4.1 61 3.2 SSW 19 24 10 13 1015.9 - 0.0
26/03:00am 11.4 7.4 4.8 64 3.0 SW 15 22 8 12 1016.0 1016.0 0.0
26/02:30am 10.9 8.0 4.6 65 2.8 WSW 9 17 5 9 1016.1 - 0.0
26/02:00am 11.3 7.6 4.7 64 3.0 SW 13 19 7 10 1016.1 - 0.0
26/01:30am 12.3 8.3 4.8 60 3.4 SW 15 20 8 11 1016.2 - 0.0
26/01:00am 12.0 7.6 5.0 62 3.2 SW 17 22 9 12 1016.2 - 0.0
26/12:30am 11.2 7.5 4.7 64 2.9 SW 13 15 7 8 1016.5 - 0.0
26/12:00am 12.0 8.4 5.2 63 3.1 SSW 13 17 7 9 1016.5 1016.5 0.0
 
Date/Time
EST
Temp
°C
App
Temp
°C
Dew
Point
°C
Rel
Hum
%
Delta-T
°C
Wind Press
QNH
hPa
Press
MSL
hPa
Rain since
9am
mm
Dir  Spd
km/h
Gust
km/h
Spd
kts
Gust
kts
25/11:30pm 12.3 9.0 4.8 60 3.4 SW 11 13 6 7 1016.4 - 0.0
25/11:00pm 13.0 9.7 4.7 57 3.8 SSW 11 17 6 9 1016.3 - 0.0
25/10:30pm 14.3 9.5 4.9 53 4.4 SSW 19 24 10 13 1016.0 - 0.0
25/10:00pm 14.6 10.6 4.9 52 4.5 SSW 15 20 8 11 1015.8 - 0.0
25/09:30pm 15.0 11.0 5.0 51 4.7 SSW 15 20 8 11 1016.1 - 0.0
25/09:00pm 14.6 11.0 4.9 52 4.5 SW 13 17 7 9 1016.0 1016.0 0.0
25/08:30pm 14.9 11.1 4.0 48 5.0 S 13 17 7 9 1015.9 - 0.0
25/08:00pm 16.1 12.1 4.8 47 5.3 SSW 15 19 8 10 1015.5 - 0.0
25/07:30pm 15.9 12.9 4.3 46 5.4 SSW 9 13 5 7 1015.2 - 0.0
25/07:00pm 17.2 14.2 4.2 42 6.1 SW 9 15 5 8 1014.7 - 0.0
25/06:30pm 18.4 14.7 4.2 39 6.7 SSW 13 20 7 11 1013.9 - 0.0
25/06:00pm 18.8 15.4 4.2 38 6.9 SW 11 17 6 9 1013.1 1013.1 0.0
25/05:30pm 20.1 16.7 3.8 34 7.8 WSW 11 22 6 12 1012.7 - 0.0
25/05:00pm 20.8 16.5 3.5 32 8.2 WSW 15 24 8 13 1012.1 - 0.0
25/04:30pm 21.5 16.1 2.2 28 9.0 W 20 30 11 16 1011.6 - 0.0
25/04:00pm 22.1 17.1 1.2 25 9.6 WSW 17 24 9 13 1011.4 - 0.0
25/03:30pm 22.3 17.1 3.4 29 9.1 SW 20 28 11 15 1011.1 - 0.0
25/03:00pm 22.7 17.1 3.3 28 9.3 WSW 22 30 12 16 1010.9 1010.9 0.0
25/02:30pm 22.4 16.5 4.0 30 9.0 WSW 24 33 13 18 1010.8 - 0.0
25/02:00pm 22.1 16.5 5.5 34 8.3 SW 24 33 13 18 1010.9 - 0.0
25/01:30pm 22.4 18.0 6.6 36 8.1 W 19 28 10 15 1011.1 - 0.0
25/01:00pm 22.2 18.3 8.7 42 7.2 WSW 19 28 10 15 1011.3 - 0.0
25/12:30pm 21.7 18.0 7.9 41 7.2 WSW 17 24 9 13 1012.0 - 0.0
25/12:00pm 20.2 14.5 5.1 37 7.4 W 24 33 13 18 1012.4 1012.4 0.0
25/11:30am 20.2 16.0 7.6 44 6.5 W 19 28 10 15 1012.9 - 0.0
25/11:00am 19.1 15.9 9.9 55 4.9 WSW 17 22 9 12 1013.1 - 0.0
25/10:30am 18.4 14.8 10.5 60 4.2 WSW 20 28 11 15 1013.3 - 0.0
25/10:00am 18.0 15.2 10.1 60 4.2 WSW 15 30 8 16 1013.2 - 0.0
25/09:30am 17.4 14.7 10.3 63 3.8 WSW 15 24 8 13 1013.8 - 0.0
25/09:00am 17.0 14.6 11.3 69 3.1 SW 15 22 8 12 1013.0 1013.0 4.0
25/08:30am 16.7 14.5 12.0 74 2.6 WSW 15 28 8 15 1013.9 - 4.0
25/08:00am 16.6 15.0 12.9 79 2.1 WSW 13 22 7 12 1012.7 - 4.0
25/07:30am 16.5 15.3 14.0 85 1.4 W 13 20 7 11 1012.1 - 4.0
25/07:00am 16.4 16.0 15.1 92 0.8 W 11 17 6 9 1012.0 - 4.0
25/06:48am 16.3 15.2 15.3 94 0.6 WNW 15 19 8 10 1012.5 - 4.0
25/06:30am 16.0 16.4 15.2 95 0.5 NNW 7 11 4 6 1010.4 - 4.0
25/06:00am 16.2 14.7 15.4 95 0.5 NW 17 20 9 11 1011.6 1011.6 4.0
25/05:30am 16.1 16.1 15.1 94 0.6 NW 9 13 5 7 1010.6 - 4.0
25/05:00am 16.3 15.2 15.3 94 0.6 WNW 15 20 8 11 1011.0 - 3.8
25/04:30am 16.0 16.3 14.9 93 0.6 N 7 15 4 8 1009.4 - 3.8
25/04:00am 16.3 15.1 15.0 92 0.8 NW 15 19 8 10 1010.2 - 3.6
25/03:30am 16.1 15.9 14.8 92 0.7 N 9 13 5 7 1009.6 - 3.6
25/03:00am 16.3 16.0 14.5 89 1.0 NNW 9 13 5 7 1009.9 1009.9 3.6
25/02:30am 16.9 15.8 14.4 85 1.4 NW 13 17 7 9 1010.3 - 2.8
25/02:00am 17.8 15.4 13.7 77 2.3 WNW 19 22 10 12 1010.4 - 2.4
25/01:30am 17.8 16.2 13.9 78 2.2 NNW 15 19 8 10 1009.6 - 2.4
25/01:00am 18.0 15.7 14.1 78 2.2 NW 19 24 10 13 1010.5 - 2.4
25/12:30am 17.7 16.4 14.8 83 1.7 NW 15 19 8 10 1010.4 - 2.4
25/12:00am 17.7 17.4 15.5 87 1.3 NW 11 17 6 9 1009.9 1009.9 2.4
 
Date/Time
EST
Temp
°C
App
Temp
°C
Dew
Point
°C
Rel
Hum
%
Delta-T
°C
Wind Press
QNH
hPa
Press
MSL
hPa
Rain since
9am
mm
Dir  Spd
km/h
Gust
km/h
Spd
kts
Gust
kts
24/11:30pm 17.9 17.3 15.7 87 1.3 NW 13 19 7 10 1010.0 - 2.4
24/11:00pm 17.4 17.5 16.4 94 0.6 NNW 11 11 6 6 1010.0 - 2.4
24/10:30pm 17.6 18.5 16.6 94 0.6 S 7 9 4 5 1009.4 - 2.4
24/10:00pm 17.5 18.7 16.0 91 0.9 S 4 6 2 3 1009.6 - 2.4
24/09:30pm 17.6 18.2 15.9 90 1.0 NNW 7 9 4 5 1009.9 - 2.4
24/09:00pm 18.0 19.2 16.0 88 1.2 N 4 9 2 5 1010.2 1010.2 2.2
24/08:30pm 18.7 19.9 15.8 83 1.7 N 4 7 2 4 1009.0 - 2.2
24/08:00pm 18.9 19.5 15.8 82 1.8 N 7 9 4 5 1009.3 - 2.2
24/07:30pm 19.2 19.1 15.9 81 2.0 N 11 13 6 7 1009.4 - 2.2
24/07:00pm 19.1 20.0 16.5 85 1.6 N 7 9 4 5 1009.1 - 2.2
24/06:30pm 18.9 20.7 16.5 86 1.4 NW 2 6 1 3 1009.3 - 2.0
24/06:00pm 20.0 20.9 16.6 81 2.1 NW 7 9 4 5 1009.5 1009.5 2.0
24/05:30pm 20.3 20.1 16.7 80 2.2 NW 13 17 7 9 1009.1 - 2.0
24/05:00pm 20.8 21.3 16.6 77 2.5 NNW 9 13 5 7 1008.4 - 2.0
24/04:30pm 21.0 20.3 16.4 75 2.8 WNW 15 19 8 10 1008.4 - 2.0
24/04:00pm 21.6 20.9 16.3 72 3.2 W 15 20 8 11 1007.6 - 2.0
24/03:30pm 21.2 20.0 16.0 72 3.1 W 17 28 9 15 1007.2 - 2.0
24/03:00pm 21.1 18.7 16.3 74 2.9 W 24 35 13 19 1007.1 1007.1 2.0
24/02:45pm 20.6 19.4 17.4 82 2.0 WSW 20 32 11 17 1007.2 - 2.0
24/02:30pm 20.1 16.8 17.1 83 1.8 WSW 30 44 16 24 1007.3 - 1.8
24/02:26pm 20.4 16.4 16.6 79 2.3 WSW 33 52 18 28 1007.2 - 1.4
24/02:25pm 20.4 16.0 16.6 79 2.3 WSW 35 52 19 28 1007.3 - 1.2
24/02:19pm 22.9 17.8 15.7 64 4.3 WSW 37 52 20 28 1006.8 - 0.0
24/02:00pm 25.6 25.0 17.5 61 5.1 WNW 17 22 9 12 1006.1 - 0.0
24/01:30pm 25.6 25.0 18.8 66 4.3 NNW 20 28 11 15 1006.0 - 0.0
24/01:00pm 25.4 25.0 19.3 69 3.9 N 20 33 11 18 1006.3 - 0.0
24/12:30pm 26.4 25.7 19.5 66 4.5 N 22 32 12 17 1006.4 - 0.0
24/12:00pm 27.1 25.0 18.1 58 5.7 NW 26 35 14 19 1006.9 1006.9 0.0
24/11:30am 26.5 25.5 18.9 63 4.9 NNW 22 35 12 19 1007.5 - 0.0
24/11:00am 26.0 23.1 17.9 61 5.1 NNW 30 41 16 22 1008.3 - 0.0
24/10:30am 26.4 24.9 19.5 66 4.5 NW 26 39 14 21 1009.1 - 0.0
24/10:00am 25.9 24.3 19.1 66 4.4 NNW 26 35 14 19 1009.5 - 0.0
24/09:30am 25.6 24.1 19.5 69 3.9 NNW 26 39 14 21 1009.7 - 0.0
24/09:00am 24.2 22.9 19.1 73 3.3 NNW 24 33 13 18 1009.7 1009.7 1.6
24/08:30am 23.7 23.1 19.8 79 2.5 NNW 22 32 12 17 1009.9 - 1.6
24/08:00am 22.8 22.9 20.0 84 1.8 NNW 19 32 10 17 1009.9 - 1.6
24/07:30am 22.4 22.2 19.8 85 1.7 NNW 20 32 11 17 1009.9 - 1.6
24/07:00am 21.7 22.0 19.6 88 1.3 N 17 24 9 13 1009.4 - 1.6
24/06:30am 21.4 21.0 19.3 88 1.3 NNW 20 28 11 15 1009.2 - 1.6
24/06:26am 21.5 20.8 19.4 88 1.3 NNW 22 28 12 15 1009.2 - 1.6
24/06:00am 21.4 21.1 19.5 89 1.2 NNW 20 30 11 16 1009.0 1009.0 1.6
24/05:30am 21.3 21.7 19.8 91 1.0 N 17 22 9 12 1008.7 - 1.6
24/05:00am 21.0 22.2 19.8 93 0.8 N 13 20 7 11 1008.3 - 1.6
24/04:40am 20.8 22.0 19.8 94 0.6 N 13 17 7 9 1008.2 - 1.6
24/04:30am 20.7 22.2 19.7 94 0.6 N 11 15 6 8 1008.1 - 1.6
24/04:28am 20.7 22.2 19.7 94 0.6 N 11 15 6 8 1008.1 - 1.6
24/04:00am 20.8 22.4 20.0 95 0.5 N 11 20 6 11 1008.4 - 1.6
24/03:30am 20.6 21.7 19.6 94 0.6 N 13 19 7 10 1008.7 - 1.6
24/03:25am 20.7 21.8 19.7 94 0.6 N 13 19 7 10 1008.8 - 1.6
24/03:00am 20.8 22.7 20.5 98 0.2 N 11 22 6 12 1009.2 1009.2 1.6
24/02:30am 20.4 22.8 20.1 98 0.2 N 7 11 4 6 1009.4 - 1.6
24/02:01am 20.1 22.4 19.8 98 0.2 N 7 11 4 6 1009.9 - 1.6
24/02:00am 20.0 22.4 19.7 98 0.2 N 6 11 3 6 1009.9 - 1.6
24/01:30am 19.8 22.1 19.5 98 0.2 NNE 6 7 3 4 1010.4 - 1.4
24/01:17am 19.7 22.0 19.4 98 0.2 NNE 6 7 3 4 1010.6 - 1.4
24/01:00am 19.7 22.4 19.4 98 0.2 NE 4 7 2 4 1010.9 - 1.4
24/12:49am 19.6 21.8 19.3 98 0.2 NE 6 7 3 4 1010.9 - 1.4
24/12:30am 19.3 21.2 19.0 98 0.2 ENE 7 9 4 5 1010.9 - 1.4
24/12:12am 19.1 21.0 18.6 97 0.3 E 6 9 3 5 1011.1 - 1.4
24/12:00am 18.6 21.4 17.9 96 0.4 CALM 0 0 0 0 1011.4 1011.4 1.4
 
Date/Time
EST
Temp
°C
App
Temp
°C
Dew
Point
°C
Rel
Hum
%
Delta-T
°C
Wind Press
QNH
hPa
Press
MSL
hPa
Rain since
9am
mm
Dir  Spd
km/h
Gust
km/h
Spd
kts
Gust
kts
23/11:30pm 18.5 20.8 17.8 96 0.4 ENE 2 7 1 4 1011.9 - 1.4
23/11:18pm 18.3 20.5 17.5 95 0.5 ENE 2 7 1 4 1011.8 - 1.4
23/11:00pm 18.3 20.0 17.1 93 0.7 ENE 4 6 2 3 1012.0 - 1.4
23/10:58pm 18.1 19.7 16.9 93 0.7 ENE 4 6 2 3 1012.0 - 1.4
23/10:30pm 18.7 21.0 17.7 94 0.6 ENE 2 7 1 4 1012.4 - 1.4
23/10:14pm 18.7 21.4 17.7 94 0.6 CALM 0 0 0 0 1012.8 - 1.4
23/10:00pm 19.1 21.2 18.1 94 0.6 ENE 4 6 2 3 1013.0 - 1.4
23/09:30pm 19.2 21.0 18.4 95 0.5 NNE 6 9 3 5 1013.3 - 1.4
23/09:14pm 19.2 21.7 18.2 94 0.6 NNE 2 6 1 3 1013.4 - 1.4
23/09:00pm 19.2 22.0 18.0 93 0.7 CALM 0 6 0 3 1013.6 1013.6 1.2
23/08:54pm 19.0 21.7 17.7 92 0.8 CALM 0 0 0 0 1013.6 - 1.2
23/08:30pm 18.9 21.0 17.2 90 1.0 NNE 2 6 1 3 1013.6 - 0.2
23/08:00pm 19.3 20.7 17.4 89 1.2 NE 6 9 3 5 1013.5 - 0.2
23/07:30pm 19.4 20.6 16.8 85 1.6 N 6 7 3 4 1013.5 - 0.2
23/07:00pm 19.7 20.7 16.9 84 1.7 NNE 7 11 4 6 1013.3 - 0.2
23/06:30pm 20.4 21.2 17.2 82 2.0 NNE 9 15 5 8 1013.2 - 0.2
23/06:00pm 20.8 21.3 18.4 86 1.5 N 13 20 7 11 1012.9 1012.9 0.2
23/05:30pm 21.8 21.6 17.6 77 2.6 N 15 24 8 13 1012.7 - 0.2
23/05:00pm 23.0 23.1 17.5 71 3.4 N 13 20 7 11 1012.4 - 0.2

Other Formats:

Comma delimited format used in spreadsheet applications
http://www.bom.gov.au/fwo/IDQ60801/IDQ60801.94567.axf

JavaScript Object Notation format (JSON) in row-major order
http://www.bom.gov.au/fwo/IDQ60801/IDQ60801.94567.json